Terminal Aerodrome Forecast
Issued by NWS

Home | Current Version | Previous Version | Text Only | Print | Product List | Glossary On
Versions: 1 2 3 4 5 6 7 8 9 10 11 12 13 14 15 16 17 18 19 20 21 22 23 24 25 26 27 28 29 30 31 32
000
FTUS41 KOKX 301740
TAFGON
TAF
KGON 301740Z 3018/3118 22010KT 1SM BR BKN004 BKN008 OVC050
     FM302000 22011KT 3SM HZ BKN008 BKN010 OVC250
     FM302300 22007KT 4SM BR BKN010 BKN040
     FM310200 VRB03KT 2SM BR VCSH BKN007 BKN040
     FM311300 33005KT P6SM SCT045 BKN250=

USA.gov is the U.S. government's official web portal to all federal, state and local government web resources and services.